Tolleson, Arizona
Current Conditions -  °F | °C
As of 6:47 PM on Friday 31 Oct 2014 (Local Time) from KGEU Reporting Station
Clear Clear  
Wind Chill: 82°   Ceiling: Unl
Heat Index: 82°   Visibility: 20mi
Dew Point: 45°   Wind: 0mph
Humidity: 26%   Direction: NA
Pressure: 29.78"   Gusts: NA
Location:  33.45°N, 112.26°W
Report Text: KGEU 010147Z 00000KT 20SM SKC 28/07 A2978
Loading
Personal Weather Stations






























Interactive Weather Map
Tropical Storm Tracking
New forecast layout! Learn more

10-Day Weather Forecast

Advertisements
Track Severe Weather on mobile